Time;durP1;ratioP1;P1;durP2;ratioP2;P2;SDS_P1;SDS_P2;PMS_P1;PMS_P2;Temp;Humidity;BMP_temperature;BMP_pressure;BME280_temperature;BME280_humidity;BME280_pressure;Samples;Min_cycle;Max_cycle;Signal;HPM_P1;HPM_P2
2023/03/16 00:02:12;;;;;;;1.75;1.00;;;;;;;0.86;83.43;101376.22;5093042;28;20633;-65
2023/03/16 00:04:38;;;;;;;7.00;1.05;;;;;;;0.90;83.50;101385.59;5094713;28;20038;-66
2023/03/16 00:07:09;;;;;;;10.82;1.02;;;;;;;0.89;83.70;101391.88;5096241;28;20047;-66
2023/03/16 00:09:35;;;;;;;3.67;0.80;;;;;;;0.86;83.49;101394.75;5097713;28;20031;-66
2023/03/16 00:12:02;;;;;;;4.72;0.77;;;;;;;0.79;83.25;101400.63;5097922;28;20042;-66
2023/03/16 00:14:28;;;;;;;6.10;0.90;;;;;;;0.60;83.51;101380.06;5097909;28;20028;-65
2023/03/16 00:16:54;;;;;;;6.45;1.00;;;;;;;0.69;83.71;101408.47;5097722;28;20028;-65
2023/03/16 00:19:21;;;;;;;4.07;1.00;;;;;;;0.68;83.79;101414.72;5104026;28;20058;-66
2023/03/16 00:21:48;;;;;;;5.90;1.02;;;;;;;0.63;83.96;101416.88;5091863;28;20036;-65
2023/03/16 00:24:17;;;;;;;4.68;0.70;;;;;;;0.46;83.90;101399.66;5108114;28;20032;-66
2023/03/16 00:26:43;;;;;;;7.25;0.90;;;;;;;0.54;83.85;101425.56;5108336;28;20040;-66
2023/03/16 00:29:08;;;;;;;4.53;0.70;;;;;;;0.53;83.93;101421.22;5099576;28;20020;-65
2023/03/16 00:31:34;;;;;;;5.88;0.70;;;;;;;0.47;83.73;101425.19;5095696;28;20024;-65
2023/03/16 00:34:01;;;;;;;4.80;1.10;;;;;;;0.49;83.95;101438.31;5077634;28;20057;-65
2023/03/16 00:36:27;;;;;;;4.97;0.98;;;;;;;0.45;83.71;101427.94;5094447;28;20047;-65
2023/03/16 00:38:53;;;;;;;3.38;0.95;;;;;;;0.56;83.66;101444.81;5095879;28;20026;-66
2023/03/16 00:41:18;;;;;;;4.97;0.95;;;;;;;0.55;83.64;101440.47;5095163;28;20031;-65
2023/03/16 00:43:44;;;;;;;6.35;0.80;;;;;;;0.53;83.59;101450.34;5083836;28;20036;-65
2023/03/16 00:46:12;;;;;;;5.20;0.80;;;;;;;0.54;83.67;101454.69;5074719;28;20036;-66
2023/03/16 00:48:41;;;;;;;5.25;1.00;;;;;;;0.55;83.97;101459.03;5074656;28;20024;-66
2023/03/16 00:51:11;;;;;;;5.88;0.85;;;;;;;0.49;83.82;101456.84;5076627;28;20024;-65
2023/03/16 00:53:39;;;;;;;2.65;0.82;;;;;;;0.37;84.10;101461.28;5075804;28;20456;-65
2023/03/16 00:56:05;;;;;;;5.20;1.15;;;;;;;0.28;84.15;101444.28;5076236;28;20060;-66
2023/03/16 00:58:34;;;;;;;4.70;0.90;;;;;;;0.42;84.01;101459.94;5057465;28;20020;-66
2023/03/16 01:01:12;;;;;;;7.03;1.20;;;;;;;0.45;83.81;101464.19;5076137;28;20040;-65
2023/03/16 01:03:38;;;;;;;3.17;0.90;;;;;;;0.45;83.89;101467.66;5092485;28;20051;-65
2023/03/16 01:06:09;;;;;;;9.13;0.95;;;;;;;0.44;83.85;101473.09;5091211;28;20066;-65
2023/03/16 01:08:35;;;;;;;2.10;0.85;;;;;;;0.39;84.19;101478.72;5093654;28;20069;-65
2023/03/16 01:11:06;;;;;;;4.82;0.80;;;;;;;0.40;84.35;101479.59;5095169;28;20052;-65
2023/03/16 01:13:32;;;;;;;4.40;0.88;;;;;;;0.43;84.40;101484.63;5095828;28;20058;-65
2023/03/16 01:15:59;;;;;;;4.65;0.95;;;;;;;0.41;84.12;101482.09;5096007;28;20463;-65
2023/03/16 01:18:26;;;;;;;2.78;0.80;;;;;;;0.22;84.20;101465.91;5095354;28;20074;-66
2023/03/16 01:20:52;;;;;;;3.63;0.80;;;;;;;0.31;84.35;101489.06;5096363;28;20095;-66
2023/03/16 01:23:18;;;;;;;4.53;0.70;;;;;;;0.32;84.46;101489.91;5095998;28;20048;-66
2023/03/16 01:25:51;;;;;;;2.03;1.02;;;;;;;0.31;84.34;101493.50;5094375;28;20036;-65
2023/03/16 01:28:20;;;;;;;3.20;0.80;;;;;;;0.30;84.33;101503.25;5094207;28;20061;-66
2023/03/16 01:30:46;;;;;;;4.30;0.93;;;;;;;0.09;84.12;101475.75;5078159;28;20115;-66
2023/03/16 01:33:11;;;;;;;4.97;0.70;;;;;;;0.18;84.40;101502.34;5095442;28;20116;-65
2023/03/16 01:35:37;;;;;;;3.95;0.68;;;;;;;0.08;84.34;101479.34;5094507;28;20086;-66
2023/03/16 01:38:03;;;;;;;6.78;1.80;;;;;;;0.17;84.35;101510.44;5077489;28;20077;-66
2023/03/16 01:40:30;;;;;;;5.35;0.93;;;;;;;0.12;84.18;101502.81;5096229;28;20066;-66
2023/03/16 01:43:03;;;;;;;3.72;1.20;;;;;;;0.18;84.28;101504.16;5094619;28;20123;-65
2023/03/16 01:46:05;;;;;;;4.85;0.80;;;;;;;0.16;84.59;101503.44;5096730;28;20426;-65
2023/03/16 01:48:50;;;;;;;2.72;0.80;;;;;;;0.15;84.33;101505.22;5096317;28;20095;-66
2023/03/16 01:51:19;;;;;;;7.50;0.88;;;;;;;0.13;84.38;101509.81;5094276;28;20085;-66
2023/03/16 01:53:47;;;;;;;3.88;0.90;;;;;;;0.04;84.08;101510.50;5093598;28;20096;-64
2023/03/16 01:56:17;;;;;;;2.88;0.70;;;;;;;-0.05;84.10;101496.13;5095518;28;20027;-65
2023/03/16 01:58:44;;;;;;;3.67;1.08;;;;;;;-0.01;84.29;101510.81;5094136;28;20024;-66
2023/03/16 02:01:11;;;;;;;3.78;0.98;;;;;;;-0.17;84.15;101491.72;5096139;28;20054;-65
2023/03/16 02:03:37;;;;;;;4.65;0.70;;;;;;;-0.06;84.09;101512.13;5078308;28;20024;-65
2023/03/16 02:06:18;;;;;;;2.80;0.50;;;;;;;-0.11;84.16;101516.91;5093928;28;20390;-65
2023/03/16 02:08:46;;;;;;;2.67;0.80;;;;;;;-0.17;84.25;101523.47;5092570;28;20020;-65
2023/03/16 02:11:16;;;;;;;5.65;0.95;;;;;;;-0.21;84.24;101522.03;5094099;28;20028;-66
2023/03/16 02:13:43;;;;;;;2.42;0.93;;;;;;;-0.25;83.89;101528.50;5094406;28;20020;-66
2023/03/16 02:16:10;;;;;;;4.88;0.80;;;;;;;-0.42;83.81;101508.56;5077925;28;20093;-65
2023/03/16 02:18:36;;;;;;;3.05;0.95;;;;;;;-0.32;83.89;101535.19;5094149;28;20511;-66
2023/03/16 02:21:42;;;;;;;4.78;1.05;;;;;;;-0.34;84.14;101543.22;5079364;28;20039;-65
2023/03/16 02:24:08;;;;;;;7.78;1.48;;;;;;;-0.35;84.16;101548.63;5089398;28;20486;-66
2023/03/16 02:26:46;;;;;;;4.43;1.10;;;;;;;-0.44;83.62;101544.00;5098697;28;20497;-65
2023/03/16 02:29:49;;;;;;;4.43;0.90;;;;;;;-0.46;83.96;101559.97;5097437;28;20027;-65
2023/03/16 02:32:16;;;;;;;4.63;0.60;;;;;;;-0.52;83.90;101549.84;5099055;28;20149;-65
2023/03/16 02:34:42;;;;;;;5.15;1.02;;;;;;;-0.71;83.62;101532.63;5099635;28;20454;-65
2023/03/16 02:37:10;;;;;;;2.92;0.80;;;;;;;-0.58;83.52;101556.38;5083482;28;20020;-65
2023/03/16 02:39:36;;;;;;;2.08;0.90;;;;;;;-0.54;83.67;101560.50;5079047;28;20040;-65
2023/03/16 02:42:02;;;;;;;4.05;0.80;;;;;;;-0.67;83.77;101532.41;5082606;28;20032;-65
2023/03/16 02:44:35;;;;;;;6.80;1.10;;;;;;;-0.48;83.98;101561.88;5098627;28;20023;-65
2023/03/16 02:47:08;;;;;;;3.40;0.70;;;;;;;-0.47;83.51;101563.56;5099916;28;20066;-65
2023/03/16 02:49:41;;;;;;;7.93;1.30;;;;;;;-0.48;83.80;101565.34;5097680;28;20034;-66
2023/03/16 02:52:07;;;;;;;3.13;0.98;;;;;;;-0.50;83.79;101566.41;5095461;28;20020;-65
2023/03/16 02:54:33;;;;;;;4.55;1.15;;;;;;;-0.54;84.07;101567.59;5093987;28;20024;-65
2023/03/16 02:56:58;;;;;;;8.27;1.08;;;;;;;-0.57;83.75;101573.94;5096697;28;20032;-65
2023/03/16 02:59:24;;;;;;;6.13;1.25;;;;;;;-0.60;83.68;101571.50;5094925;28;20048;-65
2023/03/16 03:01:50;;;;;;;6.90;0.85;;;;;;;-0.63;83.48;101577.03;5095637;28;20057;-65
2023/03/16 03:04:16;;;;;;;3.33;0.82;;;;;;;-0.66;83.77;101571.09;5097830;28;20499;-65
2023/03/16 03:06:42;;;;;;;4.32;1.20;;;;;;;-0.70;83.40;101578.38;5096825;28;20043;-66
2023/03/16 03:09:10;;;;;;;3.97;1.02;;;;;;;-0.75;83.41;101575.25;5096154;28;20104;-66
2023/03/16 03:11:36;;;;;;;4.55;0.82;;;;;;;-0.80;83.52;101579.97;5096154;28;20040;-65
2023/03/16 03:14:02;;;;;;;4.25;0.70;;;;;;;-0.79;83.59;101576.41;5097766;28;20036;-65
2023/03/16 03:16:28;;;;;;;3.33;0.80;;;;;;;-0.83;83.49;101580.19;5095585;28;20052;-65
2023/03/16 03:18:53;;;;;;;3.97;0.85;;;;;;;-0.86;83.42;101586.56;5095286;28;20048;-65
2023/03/16 03:21:19;;;;;;;1.50;0.70;;;;;;;-1.12;83.33;101564.56;5097449;28;20036;-65
2023/03/16 03:23:45;;;;;;;5.82;1.50;;;;;;;-0.99;83.40;101594.47;5098083;28;20032;-66
2023/03/16 03:26:13;;;;;;;8.05;1.40;;;;;;;-1.08;83.42;101587.19;5096201;28;20376;-65
2023/03/16 03:28:38;;;;;;;7.45;1.20;;;;;;;-1.01;83.54;101593.72;5097996;28;20056;-65
2023/03/16 03:31:03;;;;;;;7.85;2.13;;;;;;;-1.05;83.31;101592.25;5078873;28;20062;-65
2023/03/16 03:33:29;;;;;;;4.88;1.40;;;;;;;-1.06;83.59;101589.69;5096423;28;20028;-66
2023/03/16 03:35:56;;;;;;;5.07;1.20;;;;;;;-1.10;83.55;101581.13;5098861;28;20031;-65
2023/03/16 03:38:24;;;;;;;9.15;1.17;;;;;;;-1.11;83.80;101590.03;5096938;28;20039;-65
2023/03/16 03:40:50;;;;;;;4.43;1.10;;;;;;;-1.03;83.61;101592.97;5096476;28;20052;-65
2023/03/16 03:43:16;;;;;;;5.97;1.50;;;;;;;-1.24;83.10;101574.16;5094755;28;20024;-65
2023/03/16 03:45:41;;;;;;;4.72;1.50;;;;;;;-1.19;82.96;101595.00;5096530;28;20058;-66
2023/03/16 03:48:07;;;;;;;5.95;1.60;;;;;;;-1.29;83.48;101593.88;5099871;28;20028;-66
2023/03/16 03:50:32;;;;;;;6.20;1.30;;;;;;;-1.29;83.16;101597.41;5097814;28;20687;-65
2023/03/16 03:52:58;;;;;;;4.70;1.20;;;;;;;-1.58;83.31;101554.47;5098040;28;20066;-65
2023/03/16 03:55:23;;;;;;;4.20;1.23;;;;;;;-1.31;83.18;101590.53;5097122;28;20470;-66
2023/03/16 03:57:49;;;;;;;4.50;1.10;;;;;;;-1.40;83.72;101583.22;5096531;28;20028;-66
2023/03/16 04:00:15;;;;;;;6.53;1.35;;;;;;;-1.31;83.53;101582.59;5078826;28;20057;-65
2023/03/16 04:02:41;;;;;;;8.38;1.40;;;;;;;-1.03;83.42;101615.91;5079613;28;20078;-65
2023/03/16 04:05:07;;;;;;;4.57;1.08;;;;;;;-1.10;83.42;101594.34;5096569;28;20036;-65
2023/03/16 04:07:32;;;;;;;5.70;1.10;;;;;;;-0.98;83.24;101609.38;5095929;28;20061;-65
2023/03/16 04:09:57;;;;;;;8.15;1.52;;;;;;;-0.96;83.47;101610.13;5096425;28;20020;-65
2023/03/16 04:12:23;;;;;;;4.43;0.95;;;;;;;-0.91;83.52;101607.16;5097224;28;20115;-65
2023/03/16 04:14:48;;;;;;;5.03;1.30;;;;;;;-0.89;83.44;101620.25;5097607;28;20088;-65
2023/03/16 04:17:14;;;;;;;9.43;1.50;;;;;;;-1.32;83.06;101546.59;5097315;28;20035;-65
2023/03/16 04:19:39;;;;;;;6.50;1.98;;;;;;;-1.15;82.96;101591.19;5095535;28;20043;-65
2023/03/16 04:22:06;;;;;;;12.65;4.40;;;;;;;-1.07;83.22;101614.44;5078774;28;20062;-64
2023/03/16 04:24:33;;;;;;;7.45;2.03;;;;;;;-1.06;83.58;101619.63;5095857;28;20032;-65
2023/03/16 04:26:59;;;;;;;8.25;2.35;;;;;;;-0.99;83.91;101623.53;5096581;28;20440;-65
2023/03/16 04:29:25;;;;;;;4.88;2.38;;;;;;;-0.99;83.92;101623.53;5095443;28;20317;-65
2023/03/16 04:31:52;;;;;;;5.88;2.20;;;;;;;-1.01;84.32;101614.00;5095599;28;20043;-65
2023/03/16 04:34:18;;;;;;;4.65;1.95;;;;;;;-1.08;84.17;101616.22;5078791;28;20027;-65
2023/03/16 04:36:43;;;;;;;5.40;1.73;;;;;;;-1.24;84.13;101578.59;5094868;28;20035;-66
2023/03/16 04:39:09;;;;;;;3.15;1.38;;;;;;;-1.01;84.52;101620.13;5096593;28;20032;-65
2023/03/16 04:41:34;;;;;;;5.50;1.95;;;;;;;-1.15;84.11;101601.75;5097066;28;20055;-66
2023/03/16 04:44:00;;;;;;;5.40;1.30;;;;;;;-0.96;84.26;101633.03;5096383;28;20548;-65
2023/03/16 04:46:25;;;;;;;4.60;1.20;;;;;;;-1.11;84.11;101605.03;5095234;28;20475;-65
2023/03/16 04:48:52;;;;;;;5.45;1.48;;;;;;;-0.86;84.13;101643.81;5096465;28;20032;-65
2023/03/16 04:51:17;;;;;;;6.90;1.85;;;;;;;-0.86;84.38;101638.53;5092228;28;20024;-65
2023/03/16 04:53:43;;;;;;;6.57;1.58;;;;;;;-1.00;84.39;101623.63;5094284;28;20097;-65
2023/03/16 04:56:16;;;;;;;5.25;1.40;;;;;;;-0.83;84.16;101648.88;5097067;28;20030;-65
2023/03/16 04:58:42;;;;;;;6.13;1.48;;;;;;;-0.86;84.28;101652.59;5099941;28;20107;-65
2023/03/16 05:01:08;;;;;;;12.98;1.50;;;;;;;-1.03;83.92;101634.41;5100887;28;20106;-66
2023/03/16 05:03:34;;;;;;;10.77;1.45;;;;;;;-0.95;84.36;101651.44;5095490;28;20130;-66
2023/03/16 05:05:59;;;;;;;4.75;1.45;;;;;;;-0.98;84.08;101662.19;5078742;28;20042;-65
2023/03/16 05:08:25;;;;;;;7.78;1.20;;;;;;;-0.99;83.96;101672.88;5095089;28;20036;-65
2023/03/16 05:10:55;;;;;;;5.28;1.27;;;;;;;-1.06;84.17;101658.38;5095053;28;20052;-64
2023/03/16 05:13:20;;;;;;;6.65;1.75;;;;;;;-1.08;83.92;101670.84;5094219;28;20466;-64
2023/03/16 05:15:46;;;;;;;4.10;1.30;;;;;;;-1.12;83.97;101675.50;5086788;28;20543;-64
2023/03/16 05:18:11;;;;;;;4.10;1.35;;;;;;;-1.20;84.21;101669.84;5094247;28;20047;-65
2023/03/16 05:20:37;;;;;;;3.90;1.30;;;;;;;-1.20;83.82;101672.50;5077609;28;20063;-65
2023/03/16 05:23:02;;;;;;;6.03;1.85;;;;;;;-1.24;83.88;101677.13;5073160;28;20391;-64
2023/03/16 05:25:28;;;;;;;7.63;1.70;;;;;;;-1.38;83.65;101658.72;5075250;28;20408;-64
2023/03/16 05:27:53;;;;;;;4.90;1.90;;;;;;;-1.48;83.87;101653.19;5125390;28;20024;-65
2023/03/16 05:30:19;;;;;;;6.32;1.58;;;;;;;-1.28;83.56;101690.66;5096138;28;20145;-64
2023/03/16 05:32:45;;;;;;;5.75;1.90;;;;;;;-1.45;83.48;101673.28;5075758;28;20027;-65
2023/03/16 05:35:12;;;;;;;10.25;2.67;;;;;;;-1.33;83.65;101692.75;5100500;28;20136;-65
2023/03/16 05:37:38;;;;;;;8.63;2.10;;;;;;;-1.37;83.73;101683.34;5099346;28;20063;-65
2023/03/16 05:40:16;;;;;;;6.07;1.88;;;;;;;-1.26;83.19;101694.03;5088150;28;20088;-65
2023/03/16 05:42:46;;;;;;;7.95;2.25;;;;;;;-1.24;83.51;101706.19;5095512;28;20069;-64
2023/03/16 05:45:13;;;;;;;4.40;2.10;;;;;;;-1.18;83.58;101699.66;5094622;28;20027;-65
2023/03/16 05:47:39;;;;;;;6.25;2.50;;;;;;;-1.21;83.40;101697.22;5083129;28;20028;-65
2023/03/16 05:50:10;;;;;;;9.60;2.20;;;;;;;-1.04;83.09;101715.44;5085232;28;20031;-66
2023/03/16 05:52:37;;;;;;;8.95;2.55;;;;;;;-0.91;83.36;101714.63;5084941;28;20035;-65
2023/03/16 05:55:04;;;;;;;8.18;2.35;;;;;;;-0.81;83.15;101721.00;5092794;28;20116;-65
2023/03/16 05:57:30;;;;;;;8.40;2.55;;;;;;;-0.86;83.41;101718.66;5096578;28;20028;-66
2023/03/16 05:59:56;;;;;;;11.18;2.85;;;;;;;-0.84;83.06;101718.56;5100063;28;20039;-65
2023/03/16 06:02:21;;;;;;;6.53;2.30;;;;;;;-0.84;83.54;101707.97;5098163;28;20031;-65
2023/03/16 06:04:47;;;;;;;7.57;2.13;;;;;;;-0.69;83.18;101722.81;5096205;28;20046;-64
2023/03/16 06:07:12;;;;;;;6.90;2.30;;;;;;;-0.72;83.02;101693.94;5080890;28;20115;-65
2023/03/16 06:09:38;;;;;;;11.73;2.58;;;;;;;-0.52;83.28;101722.50;5103769;28;20102;-65
2023/03/16 06:12:03;;;;;;;7.15;2.00;;;;;;;-0.41;83.46;101723.56;5102069;28;20047;-66
2023/03/16 06:14:29;;;;;;;6.93;2.00;;;;;;;-0.38;83.52;101696.91;5096139;28;20169;-65
2023/03/16 06:16:55;;;;;;;8.95;1.92;;;;;;;-0.05;83.46;101726.28;5096376;28;20132;-66
2023/03/16 06:19:20;;;;;;;8.23;1.80;;;;;;;0.09;82.96;101724.47;5097010;28;20360;-65
2023/03/16 06:21:46;;;;;;;4.32;1.92;;;;;;;0.08;83.27;101709.56;5093918;28;20039;-65
2023/03/16 06:24:11;;;;;;;6.07;2.20;;;;;;;0.13;82.96;101713.59;5097547;28;20535;-65
2023/03/16 06:26:37;;;;;;;7.50;2.28;;;;;;;0.09;83.24;101725.31;5092742;28;20024;-65
2023/03/16 06:29:03;;;;;;;12.68;2.33;;;;;;;0.08;83.64;101731.56;5078452;28;20024;-66
2023/03/16 06:31:28;;;;;;;9.90;2.15;;;;;;;0.07;83.66;101735.19;5096448;28;20024;-65
2023/03/16 06:33:54;;;;;;;5.35;2.00;;;;;;;0.11;83.62;101733.16;5097480;28;20055;-65
2023/03/16 06:36:20;;;;;;;8.32;2.10;;;;;;;0.23;83.65;101740.22;5097245;28;20044;-66
2023/03/16 06:38:45;;;;;;;9.35;2.33;;;;;;;0.36;83.42;101738.38;5100516;28;20028;-65
2023/03/16 06:41:11;;;;;;;11.07;2.15;;;;;;;0.48;83.48;101741.97;5098262;28;20451;-65
2023/03/16 06:43:36;;;;;;;5.88;2.47;;;;;;;0.48;83.33;101712.84;5098940;28;20028;-65
2023/03/16 06:46:02;;;;;;;13.02;2.63;;;;;;;0.69;83.08;101728.97;5098301;28;20024;-65
2023/03/16 06:48:28;;;;;;;7.03;2.67;;;;;;;0.99;82.92;101738.25;5096976;28;20115;-66
2023/03/16 06:50:53;;;;;;;7.25;2.55;;;;;;;1.15;82.67;101744.94;5097307;28;20024;-65
2023/03/16 06:53:18;;;;;;;9.85;2.55;;;;;;;1.33;82.50;101744.53;5097008;28;20371;-66
2023/03/16 06:55:44;;;;;;;11.45;2.20;;;;;;;1.55;82.28;101757.00;5097683;28;20102;-66
2023/03/16 06:58:10;;;;;;;14.05;2.15;;;;;;;1.75;82.44;101750.16;5097404;28;20081;-66
2023/03/16 07:00:36;;;;;;;11.70;2.80;;;;;;;1.85;82.24;101754.66;5097425;28;20035;-66
2023/03/16 07:03:02;;;;;;;5.78;2.00;;;;;;;1.83;82.19;101727.38;5096736;28;20074;-65
2023/03/16 07:05:28;;;;;;;16.30;2.83;;;;;;;2.07;82.57;101758.28;5098290;28;20060;-65
2023/03/16 07:07:53;;;;;;;12.23;2.85;;;;;;;2.21;82.75;101759.84;5096913;28;20048;-65
2023/03/16 07:10:19;;;;;;;8.45;2.50;;;;;;;2.16;82.77;101731.00;5097262;28;20032;-65
2023/03/16 07:12:45;;;;;;;6.07;2.28;;;;;;;2.39;82.60;101744.28;5097247;28;20024;-65
2023/03/16 07:15:11;;;;;;;8.50;2.67;;;;;;;2.54;82.77;101757.16;5096647;28;20071;-65
2023/03/16 07:17:37;;;;;;;7.72;1.98;;;;;;;2.65;81.99;101750.13;5095072;28;20031;-65
2023/03/16 07:20:04;;;;;;;12.88;3.10;;;;;;;2.78;82.53;101762.31;5095761;28;20071;-64
2023/03/16 07:22:31;;;;;;;12.65;3.58;;;;;;;2.66;82.34;101736.72;5096856;28;20096;-66
2023/03/16 07:24:57;;;;;;;13.35;4.72;;;;;;;3.01;82.21;101778.16;5101839;28;20121;-66
2023/03/16 07:27:23;;;;;;;15.15;4.75;;;;;;;3.10;82.17;101780.09;5099319;28;20102;-65
2023/03/16 07:29:50;;;;;;;9.15;4.10;;;;;;;3.17;81.83;101769.78;5097975;28;20474;-65
2023/03/16 07:32:16;;;;;;;10.40;3.30;;;;;;;3.31;81.58;101785.44;5097508;28;20073;-65
2023/03/16 07:34:42;;;;;;;10.65;2.03;;;;;;;3.35;81.61;101786.03;5097946;28;20035;-66
2023/03/16 07:37:07;;;;;;;8.95;2.08;;;;;;;3.45;81.78;101789.63;5096510;28;20024;-65
2023/03/16 07:39:36;;;;;;;11.57;2.33;;;;;;;3.59;81.29;101796.44;5093792;28;20034;-66
2023/03/16 07:42:02;;;;;;;14.23;3.33;;;;;;;3.59;81.08;101799.94;5093091;28;20032;-66
2023/03/16 07:44:28;;;;;;;9.23;3.28;;;;;;;3.69;81.35;101803.50;5093392;28;20111;-65
2023/03/16 07:46:53;;;;;;;8.00;2.95;;;;;;;3.76;81.10;101802.00;5093882;28;20063;-67
2023/03/16 07:49:19;;;;;;;8.18;1.60;;;;;;;3.94;80.17;101812.06;5093845;28;20107;-65
2023/03/16 07:51:45;;;;;;;8.57;2.42;;;;;;;3.99;80.15;101802.72;5096621;28;20386;-64
2023/03/16 07:54:10;;;;;;;10.93;2.17;;;;;;;4.22;79.09;101814.06;5096836;28;20028;-66
2023/03/16 07:56:36;;;;;;;9.63;2.10;;;;;;;4.14;79.20;101784.59;5097798;28;20088;-66
2023/03/16 07:59:02;;;;;;;6.30;2.30;;;;;;;4.46;78.39;101807.56;5098528;28;20058;-65
2023/03/16 08:01:28;;;;;;;9.63;2.80;;;;;;;4.62;77.78;101813.22;5098137;28;20555;-65
2023/03/16 08:03:53;;;;;;;10.15;2.90;;;;;;;4.80;77.99;101808.09;5097837;28;20064;-64
2023/03/16 08:06:20;;;;;;;12.00;2.33;;;;;;;4.91;77.42;101815.13;5097567;28;20055;-65
2023/03/16 08:08:46;;;;;;;9.48;2.90;;;;;;;4.97;76.43;101806.59;5097926;28;20362;-66
2023/03/16 08:11:11;;;;;;;6.70;1.80;;;;;;;5.10;75.81;101816.97;5098733;28;20107;-65
2023/03/16 08:13:37;;;;;;;9.82;1.98;;;;;;;5.26;75.67;101811.09;5097619;28;20471;-65
2023/03/16 08:16:04;;;;;;;8.32;1.77;;;;;;;5.30;75.34;101812.53;5096402;28;20055;-65
2023/03/16 08:18:30;;;;;;;7.30;1.63;;;;;;;5.45;74.64;101818.28;5097198;28;20136;-67
2023/03/16 08:20:56;;;;;;;6.57;1.35;;;;;;;5.54;74.27;101822.78;5096914;28;20533;-65
2023/03/16 08:23:23;;;;;;;5.82;1.85;;;;;;;5.51;74.17;101809.72;5097715;28;20046;-66
2023/03/16 08:25:53;;;;;;;6.28;1.58;;;;;;;5.65;74.14;101822.63;5097238;28;20031;-65
2023/03/16 08:28:20;;;;;;;8.10;1.40;;;;;;;5.70;73.76;101831.06;5097233;28;20525;-67
2023/03/16 08:30:52;;;;;;;4.85;1.58;;;;;;;5.69;73.48;101829.34;5105734;28;20440;-65
2023/03/16 08:33:19;;;;;;;7.55;1.73;;;;;;;5.81;72.65;101830.88;5097122;28;20028;-64
2023/03/16 08:35:46;;;;;;;6.32;1.25;;;;;;;5.93;72.05;101830.75;5099490;28;20031;-65
2023/03/16 08:38:14;;;;;;;6.95;1.60;;;;;;;5.95;71.87;101832.31;5098588;28;20067;-64
2023/03/16 08:40:47;;;;;;;5.80;1.85;;;;;;;6.06;71.32;101833.97;5096062;28;20429;-66
2023/03/16 08:43:17;;;;;;;7.15;2.38;;;;;;;6.16;71.33;101828.59;5099504;28;20027;-66
2023/03/16 08:45:47;;;;;;;7.32;1.80;;;;;;;6.14;70.91;101811.88;5099766;28;20036;-66
2023/03/16 08:48:13;;;;;;;4.47;1.63;;;;;;;6.33;70.44;101836.72;5092758;28;20023;-66
2023/03/16 08:50:42;;;;;;;6.50;1.80;;;;;;;6.43;70.15;101839.34;5093810;28;20028;-66
2023/03/16 08:53:09;;;;;;;6.32;2.25;;;;;;;6.44;69.56;101835.69;5096395;28;20056;-65
2023/03/16 08:55:35;;;;;;;6.85;1.70;;;;;;;6.50;68.70;101819.06;5097035;28;20432;-67
2023/03/16 08:58:02;;;;;;;4.65;1.50;;;;;;;6.66;68.72;101844.31;5095617;28;20031;-65
2023/03/16 09:00:28;;;;;;;3.92;1.30;;;;;;;6.79;67.71;101851.00;5098382;28;20050;-66
2023/03/16 09:02:55;;;;;;;8.00;1.55;;;;;;;6.65;67.43;101821.22;5096692;28;20474;-65
2023/03/16 09:05:22;;;;;;;4.97;1.40;;;;;;;6.74;66.89;101847.09;5090764;28;20047;-66
2023/03/16 09:07:48;;;;;;;4.95;1.00;;;;;;;6.70;66.56;101827.00;5096460;28;20031;-66
2023/03/16 09:10:14;;;;;;;4.38;1.30;;;;;;;6.80;66.27;101851.84;5098694;28;20028;-66
2023/03/16 09:12:44;;;;;;;4.60;1.40;;;;;;;6.67;65.38;101817.41;5099136;28;20073;-66
2023/03/16 09:15:12;;;;;;;6.03;1.30;;;;;;;6.90;64.62;101851.81;5099449;28;20390;-66
2023/03/16 09:17:40;;;;;;;9.23;1.38;;;;;;;6.89;64.48;101852.78;5098150;28;20036;-66
2023/03/16 09:20:08;;;;;;;8.68;1.30;;;;;;;6.95;64.07;101858.38;5098862;28;20124;-66
2023/03/16 09:22:35;;;;;;;4.60;1.27;;;;;;;7.10;64.10;101858.72;5098110;28;20016;-66
2023/03/16 09:25:01;;;;;;;4.45;1.23;;;;;;;7.09;63.75;101842.81;5097415;28;20058;-66
2023/03/16 09:27:26;;;;;;;5.35;1.30;;;;;;;7.30;62.88;101865.63;5080129;28;20035;-66
2023/03/16 09:29:55;;;;;;;5.53;1.40;;;;;;;7.38;63.24;101862.19;5098955;28;20541;-66
2023/03/16 09:32:20;;;;;;;7.57;1.35;;;;;;;7.49;62.94;101861.97;5101304;28;20444;-67
2023/03/16 09:34:46;;;;;;;5.20;1.15;;;;;;;7.55;62.57;101863.19;5102023;28;20115;-67
2023/03/16 09:37:12;;;;;;;2.38;0.77;;;;;;;7.50;62.28;101860.97;5100469;28;20087;-66
2023/03/16 09:39:38;;;;;;;3.33;0.90;;;;;;;7.46;61.99;101877.50;5099978;28;20118;-65
2023/03/16 09:42:18;;;;;;;5.82;1.10;;;;;;;7.46;61.59;101870.31;5098482;28;20175;-65
2023/03/16 09:45:01;;;;;;;7.20;1.10;;;;;;;7.61;60.58;101880.47;5101122;28;20020;-66
2023/03/16 09:47:33;;;;;;;5.18;0.90;;;;;;;7.65;60.22;101869.31;5100840;28;20024;-66
2023/03/16 09:50:06;;;;;;;6.57;1.02;;;;;;;7.72;60.82;101874.91;5101237;28;20039;-66
2023/03/16 09:52:38;;;;;;;5.05;1.08;;;;;;;7.73;59.93;101877.41;5109032;28;20043;-66
2023/03/16 09:55:15;;;;;;;2.97;0.98;;;;;;;7.68;60.08;101873.50;5107548;28;20020;-66
2023/03/16 09:57:43;;;;;;;3.50;0.93;;;;;;;7.88;59.67;101874.19;5103122;28;20047;-65
2023/03/16 10:00:18;;;;;;;2.97;0.82;;;;;;;7.84;59.14;101884.38;5102034;28;20032;-65
2023/03/16 10:02:50;;;;;;;3.60;0.98;;;;;;;7.90;58.93;101874.88;5099593;28;20035;-64
2023/03/16 10:05:19;;;;;;;4.15;1.10;;;;;;;7.93;58.61;101883.44;5099516;28;20481;-66
2023/03/16 10:07:56;;;;;;;3.47;1.05;;;;;;;7.96;58.58;101876.94;5101961;28;20024;-66
2023/03/16 10:11:00;;;;;;;3.05;1.08;;;;;;;8.02;57.43;101876.31;5100844;28;20024;-66
2023/03/16 10:13:39;;;;;;;1.60;0.80;;;;;;;8.27;57.67;101876.47;5101251;28;20028;-66
2023/03/16 10:16:11;;;;;;;4.50;1.00;;;;;;;8.36;57.06;101879.06;5101935;28;20039;-66
2023/03/16 10:18:44;;;;;;;4.45;0.68;;;;;;;8.31;56.63;101851.03;5100870;28;20499;-66
2023/03/16 10:21:13;;;;;;;2.72;0.80;;;;;;;8.21;57.13;101869.91;5101316;28;20047;-66
2023/03/16 10:23:40;;;;;;;3.05;0.98;;;;;;;8.15;56.01;101865.19;5099557;28;20058;-66
2023/03/16 10:26:13;;;;;;;4.72;1.00;;;;;;;8.32;55.00;101880.38;5100000;28;20036;-66
2023/03/16 10:28:38;;;;;;;3.55;0.80;;;;;;;8.36;55.67;101881.75;5099344;28;20115;-66
2023/03/16 10:31:04;;;;;;;5.78;1.10;;;;;;;8.36;54.62;101876.38;5100277;28;20130;-66
2023/03/16 10:33:35;;;;;;;3.92;1.05;;;;;;;8.30;54.09;101860.06;5100076;28;20078;-66
2023/03/16 10:36:10;;;;;;;2.55;0.77;;;;;;;8.49;54.04;101870.63;5099642;28;20118;-66
2023/03/16 10:38:41;;;;;;;3.10;0.80;;;;;;;8.45;53.50;101878.16;5100529;28;20057;-66
2023/03/16 10:41:20;;;;;;;3.15;1.13;;;;;;;8.46;51.03;101874.44;5101147;28;20358;-66
2023/03/16 10:44:06;;;;;;;6.05;1.33;;;;;;;8.68;51.85;101870.38;5095607;28;20027;-67
2023/03/16 10:47:03;;;;;;;3.97;0.80;;;;;;;8.63;51.74;101856.59;5096145;28;20115;-66
2023/03/16 10:49:28;;;;;;;2.35;0.80;;;;;;;8.76;50.64;101860.69;5100154;28;20069;-66
2023/03/16 10:51:58;;;;;;;4.00;1.10;;;;;;;8.71;50.34;101861.19;5100722;28;20137;-67
2023/03/16 10:54:32;;;;;;;6.22;0.93;;;;;;;8.86;50.08;101864.91;5100916;28;20043;-66
2023/03/16 10:56:59;;;;;;;4.43;0.77;;;;;;;8.76;49.80;101852.63;5101793;28;20066;-66
2023/03/16 10:59:33;;;;;;;5.00;1.15;;;;;;;8.97;48.72;101858.41;5100974;28;20141;-66
2023/03/16 11:02:02;;;;;;;2.83;0.80;;;;;;;9.29;48.40;101857.66;5100748;28;20031;-66
2023/03/16 11:04:32;;;;;;;4.03;0.70;;;;;;;9.32;47.49;101859.19;5101632;28;20028;-66
2023/03/16 11:06:57;;;;;;;4.55;1.00;;;;;;;9.24;46.62;101857.34;5100111;28;20046;-66
2023/03/16 11:09:30;;;;;;;3.58;0.90;;;;;;;9.31;45.84;101857.50;5099234;28;20058;-67
2023/03/16 11:11:56;;;;;;;3.28;0.60;;;;;;;9.42;45.83;101870.63;5099955;28;20020;-66
2023/03/16 11:14:26;;;;;;;2.85;0.70;;;;;;;9.36;45.44;101869.41;5101354;28;20035;-66
2023/03/16 11:17:02;;;;;;;3.38;0.98;;;;;;;9.29;44.61;101863.03;5100117;28;20036;-66
2023/03/16 11:19:48;;;;;;;2.33;0.70;;;;;;;9.26;44.67;101860.66;5104371;28;20052;-66
2023/03/16 11:22:18;;;;;;;;;;;;;;;9.33;45.00;101856.31;5100942;28;20348;-66
2023/03/16 11:25:01;;;;;;;4.28;0.70;;;;;;;9.25;44.68;101853.63;5099798;28;19999;-66
2023/03/16 11:27:41;;;;;;;4.10;0.90;;;;;;;9.17;44.78;101841.03;5098386;28;20473;-66
2023/03/16 11:30:16;;;;;;;3.97;0.90;;;;;;;9.32;44.34;101856.50;5095836;28;20370;-66
2023/03/16 11:32:49;;;;;;;5.72;1.00;;;;;;;9.34;44.72;101851.81;5098731;28;20467;-66
2023/03/16 11:35:33;;;;;;;4.18;1.10;;;;;;;9.35;43.72;101824.78;5097053;28;20031;-65